Time;durP1;ratioP1;P1;durP2;ratioP2;P2;SDS_P1;SDS_P2;PMS_P1;PMS_P2;Temp;Humidity;BMP_temperature;BMP_pressure;BME280_temperature;BME280_humidity;BME280_pressure;Samples;Min_cycle;Max_cycle;Signal;HPM_P1;HPM_P2
2023/09/30 00:01:26;;;;;;;;;;;19.20;87.60;;;;;;4123863;28;19932;-42
2023/09/30 00:04:08;;;;;;;;;;;19.20;87.60;;;;;;4123553;28;19949;-41
2023/09/30 00:06:49;;;;;;;;;;;19.10;87.50;;;;;;4122966;28;19933;-41
2023/09/30 00:09:30;;;;;;;;;;;19.10;87.50;;;;;;4122733;28;20297;-44
2023/09/30 00:12:11;;;;;;;;;;;19.10;87.60;;;;;;4123363;28;19937;-42
2023/09/30 00:14:53;;;;;;;;;;;19.10;87.50;;;;;;4123840;28;19940;-41
2023/09/30 00:17:35;;;;;;;;;;;19.10;87.50;;;;;;4106484;28;19937;-42
2023/09/30 00:20:17;;;;;;;;;;;19.10;87.50;;;;;;4107080;28;20069;-41
2023/09/30 00:22:58;;;;;;;;;;;19.10;87.50;;;;;;4106864;28;19933;-42
2023/09/30 00:25:39;;;;;;;;;;;19.10;87.50;;;;;;4106824;28;19937;-41
2023/09/30 00:28:20;;;;;;;;;;;19.10;87.60;;;;;;4107038;28;19933;-41
2023/09/30 00:31:01;;;;;;;;;;;19.10;87.70;;;;;;4105604;28;20393;-41
2023/09/30 00:33:43;;;;;;;;;;;19.10;87.70;;;;;;4106340;28;19964;-42
2023/09/30 00:36:24;;;;;;;;;;;19.10;87.60;;;;;;4106008;28;19996;-41
2023/09/30 00:39:05;;;;;;;;;;;19.10;87.60;;;;;;4105408;28;19953;-41
2023/09/30 00:41:46;;;;;;;;;;;19.10;87.70;;;;;;4121519;28;19937;-41
2023/09/30 00:44:28;;;;;;;;;;;19.00;87.60;;;;;;4122207;28;19936;-42
2023/09/30 00:47:10;;;;;;;;;;;19.00;88.50;;;;;;4121232;28;20049;-42
2023/09/30 00:49:53;;;;;;;;;;;19.00;87.60;;;;;;4123124;28;20015;-41
2023/09/30 00:52:36;;;;;;;;;;;19.00;87.60;;;;;;4122611;28;19940;-41
2023/09/30 00:55:17;;;;;;;;;;;19.00;87.50;;;;;;4121135;28;19936;-41
2023/09/30 00:57:57;;;;;;;;;;;19.00;87.50;;;;;;4106046;28;20402;-43
2023/09/30 01:00:38;;;;;;;;;;;19.00;87.50;;;;;;4106624;28;19937;-41
2023/09/30 01:03:19;;;;;;;;;;;19.00;87.50;;;;;;4106503;28;19933;-42
2023/09/30 01:06:02;;;;;;;;;;;19.00;87.50;;;;;;4106763;28;20402;-41
2023/09/30 01:08:43;;;;;;;;;;;19.00;87.50;;;;;;4106233;28;19976;-41
2023/09/30 01:11:24;;;;;;;;;;;19.00;87.40;;;;;;4106083;28;19992;-41
2023/09/30 01:14:05;;;;;;;;;;;18.90;87.30;;;;;;4106683;28;19952;-41
2023/09/30 01:16:45;;;;;;;;;;;18.90;87.30;;;;;;4120097;28;19948;-42
2023/09/30 01:19:27;;;;;;;;;;;18.90;87.40;;;;;;4122650;28;19933;-42
2023/09/30 01:22:09;;;;;;;;;;;18.90;87.40;;;;;;4121107;28;19979;-43
2023/09/30 01:24:50;;;;;;;;;;;18.90;87.40;;;;;;4122073;28;19933;-41
2023/09/30 01:27:31;;;;;;;;;;;18.90;87.30;;;;;;4121641;28;20068;-43
2023/09/30 01:30:13;;;;;;;;;;;18.90;87.30;;;;;;4122030;28;19938;-41
2023/09/30 01:32:55;;;;;;;;;;;18.90;87.30;;;;;;4104488;28;19933;-42
2023/09/30 01:35:36;;;;;;;;;;;18.90;87.30;;;;;;4105974;28;19933;-40
2023/09/30 01:38:19;;;;;;;;;;;18.90;87.30;;;;;;4105233;28;19937;-41
2023/09/30 01:41:01;;;;;;;;;;;18.90;88.20;;;;;;4106266;28;19937;-40
2023/09/30 01:43:41;;;;;;;;;;;18.90;87.30;;;;;;4106724;28;19932;-44
2023/09/30 01:46:22;;;;;;;;;;;18.90;87.30;;;;;;4113168;28;19937;-43
2023/09/30 01:49:04;;;;;;;;;;;18.80;88.10;;;;;;4126012;28;20412;-41
2023/09/30 01:51:45;;;;;;;;;;;18.80;88.20;;;;;;4120680;28;20006;-41
2023/09/30 01:54:27;;;;;;;;;;;18.80;87.30;;;;;;4120917;28;20294;-40
2023/09/30 01:57:09;;;;;;;;;;;18.80;87.30;;;;;;4106019;28;20395;-41
2023/09/30 01:59:51;;;;;;;;;;;18.80;87.30;;;;;;4105209;28;20298;-41
2023/09/30 02:02:32;;;;;;;;;;;18.80;87.30;;;;;;4104792;28;19933;-41
2023/09/30 02:05:13;;;;;;;;;;;18.80;87.30;;;;;;4111456;28;19936;-41
2023/09/30 02:07:54;;;;;;;;;;;18.80;87.20;;;;;;4121601;28;19932;-41
2023/09/30 02:10:36;;;;;;;;;;;18.80;87.20;;;;;;4120661;28;20404;-41
2023/09/30 02:13:17;;;;;;;;;;;18.80;88.10;;;;;;4121552;28;19937;-40
2023/09/30 02:16:00;;;;;;;;;;;18.80;87.20;;;;;;4121294;28;20322;-42
2023/09/30 02:18:41;;;;;;;;;;;18.80;87.20;;;;;;4121511;28;19937;-41
2023/09/30 02:21:22;;;;;;;;;;;18.80;87.20;;;;;;4132414;28;19937;-45
2023/09/30 02:24:06;;;;;;;;;;;18.70;87.10;;;;;;4121141;28;19936;-41
2023/09/30 02:26:49;;;;;;;;;;;18.80;87.20;;;;;;4104578;28;19933;-41
2023/09/30 02:29:31;;;;;;;;;;;18.80;87.20;;;;;;4105719;28;20398;-42
2023/09/30 02:32:13;;;;;;;;;;;18.70;87.10;;;;;;4093211;28;20394;-40
2023/09/30 02:34:54;;;;;;;;;;;18.70;87.10;;;;;;4104854;28;19945;-41
2023/09/30 02:37:36;;;;;;;;;;;18.70;87.10;;;;;;4104757;28;20295;-40
2023/09/30 02:40:17;;;;;;;;;;;18.70;87.20;;;;;;4106857;28;19933;-41
2023/09/30 02:42:58;;;;;;;;;;;18.70;87.10;;;;;;4104599;28;19938;-41
2023/09/30 02:45:39;;;;;;;;;;;18.70;87.20;;;;;;4097220;28;20422;-40
2023/09/30 02:48:20;;;;;;;;;;;18.70;87.20;;;;;;4105928;28;19981;-41
2023/09/30 02:51:01;;;;;;;;;;;18.70;87.10;;;;;;4104505;28;19973;-40
2023/09/30 02:53:42;;;;;;;;;;;18.70;87.10;;;;;;4105443;28;19933;-41
2023/09/30 02:56:24;;;;;;;;;;;18.70;87.10;;;;;;4116590;28;19937;-41
2023/09/30 02:59:07;;;;;;;;;;;18.70;87.10;;;;;;4105728;28;19936;-41
2023/09/30 03:01:48;;;;;;;;;;;18.70;87.10;;;;;;4105844;28;19933;-41
2023/09/30 03:04:30;;;;;;;;;;;18.70;87.10;;;;;;4107599;28;19933;-40
2023/09/30 03:07:11;;;;;;;;;;;18.70;87.10;;;;;;4123486;28;19936;-41
2023/09/30 03:09:54;;;;;;;;;;;18.70;87.10;;;;;;4123404;28;19937;-42
2023/09/30 03:12:35;;;;;;;;;;;18.60;87.00;;;;;;4122883;28;19936;-41
2023/09/30 03:15:17;;;;;;;;;;;18.60;87.90;;;;;;4122101;28;20785;-42
2023/09/30 03:17:59;;;;;;;;;;;18.60;87.10;;;;;;4107541;28;19933;-41
2023/09/30 03:20:43;;;;;;;;;;;18.60;87.00;;;;;;4108390;28;20057;-41
2023/09/30 03:23:28;;;;;;;;;;;18.60;87.00;;;;;;4108297;28;19933;-42
2023/09/30 03:26:10;;;;;;;;;;;18.60;87.00;;;;;;4118763;28;19933;-41
2023/09/30 03:28:51;;;;;;;;;;;18.60;87.80;;;;;;4124279;28;19933;-43
2023/09/30 03:31:33;;;;;;;;;;;18.60;86.90;;;;;;4122770;28;19936;-42
2023/09/30 03:34:16;;;;;;;;;;;18.60;86.90;;;;;;4123274;28;19936;-42
2023/09/30 03:36:58;;;;;;;;;;;18.60;86.90;;;;;;4108176;28;19965;-41
2023/09/30 03:39:40;;;;;;;;;;;18.60;86.90;;;;;;4107622;28;19933;-42
2023/09/30 03:42:22;;;;;;;;;;;18.60;86.90;;;;;;4107933;28;19933;-41
2023/09/30 03:45:04;;;;;;;;;;;18.60;87.00;;;;;;4106805;28;20448;-41
2023/09/30 03:47:47;;;;;;;;;;;18.50;87.00;;;;;;4107831;28;19933;-41
2023/09/30 03:50:30;;;;;;;;;;;18.60;87.00;;;;;;4107760;28;19970;-40
2023/09/30 03:53:11;;;;;;;;;;;18.50;86.90;;;;;;4106511;28;19950;-41
2023/09/30 03:55:52;;;;;;;;;;;18.50;86.90;;;;;;4122568;28;20035;-40
2023/09/30 03:58:33;;;;;;;;;;;18.50;86.90;;;;;;4123536;28;20301;-40
2023/09/30 04:01:14;;;;;;;;;;;18.60;87.00;;;;;;4123389;28;20025;-41
2023/09/30 04:03:57;;;;;;;;;;;18.50;86.90;;;;;;4117407;28;19937;-40
2023/09/30 04:06:38;;;;;;;;;;;18.50;87.80;;;;;;4122068;28;19932;-41
2023/09/30 04:09:19;;;;;;;;;;;18.50;87.00;;;;;;4123595;28;19941;-43
2023/09/30 04:12:01;;;;;;;;;;;18.50;87.00;;;;;;4123356;28;20294;-40
2023/09/30 04:14:42;;;;;;;;;;;18.50;87.10;;;;;;4123085;28;20068;-40
2023/09/30 04:17:23;;;;;;;;;;;18.50;87.00;;;;;;4122856;28;19932;-41
2023/09/30 04:20:08;;;;;;;;;;;18.50;87.00;;;;;;4123364;28;19940;-41
2023/09/30 04:22:51;;;;;;;;;;;18.50;87.80;;;;;;4115738;28;19937;-41
2023/09/30 04:25:32;;;;;;;;;;;18.50;87.00;;;;;;4121208;28;20100;-43
2023/09/30 04:28:13;;;;;;;;;;;18.40;87.90;;;;;;4122992;28;19932;-41
2023/09/30 04:30:54;;;;;;;;;;;18.50;87.10;;;;;;4123541;28;20436;-41
2023/09/30 04:33:35;;;;;;;;;;;18.50;87.10;;;;;;4115328;28;19980;-41
2023/09/30 04:36:17;;;;;;;;;;;18.50;87.10;;;;;;4106125;28;20020;-41
2023/09/30 04:39:00;;;;;;;;;;;18.40;87.10;;;;;;4106634;28;19954;-41
2023/09/30 04:41:42;;;;;;;;;;;18.50;87.10;;;;;;4106793;28;19949;-42
2023/09/30 04:44:23;;;;;;;;;;;18.40;87.10;;;;;;4107192;28;19969;-42
2023/09/30 04:47:04;;;;;;;;;;;18.40;87.10;;;;;;4105904;28;20042;-40
2023/09/30 04:49:45;;;;;;;;;;;18.40;87.20;;;;;;4094754;28;20015;-41
2023/09/30 04:52:27;;;;;;;;;;;18.40;87.60;;;;;;4105146;28;20011;-40
2023/09/30 04:55:09;;;;;;;;;;;18.50;88.00;;;;;;4106132;28;20084;-40
2023/09/30 04:57:50;;;;;;;;;;;18.50;87.90;;;;;;4106634;28;19936;-40
2023/09/30 05:00:31;;;;;;;;;;;18.50;87.80;;;;;;4117659;28;19937;-40
2023/09/30 05:03:12;;;;;;;;;;;18.50;87.70;;;;;;4121536;28;19936;-40
2023/09/30 05:05:55;;;;;;;;;;;18.50;87.70;;;;;;4122117;28;20481;-41
2023/09/30 05:08:37;;;;;;;;;;;18.50;87.80;;;;;;4121719;28;19937;-41
2023/09/30 05:11:18;;;;;;;;;;;18.50;87.80;;;;;;4108317;28;19972;-41
2023/09/30 05:13:59;;;;;;;;;;;18.50;87.80;;;;;;4113841;28;19936;-41
2023/09/30 05:16:40;;;;;;;;;;;18.40;87.80;;;;;;4105246;28;20076;-41
2023/09/30 05:19:21;;;;;;;;;;;18.40;87.90;;;;;;4111447;28;19983;-41
2023/09/30 05:22:02;;;;;;;;;;;18.40;87.90;;;;;;4121679;28;19937;-41
2023/09/30 05:24:45;;;;;;;;;;;18.40;87.90;;;;;;4120823;28;20352;-41
2023/09/30 05:27:25;;;;;;;;;;;18.40;87.90;;;;;;4132289;28;19937;-41
2023/09/30 05:30:07;;;;;;;;;;;18.40;87.90;;;;;;4112147;28;19937;-41
2023/09/30 05:32:48;;;;;;;;;;;18.40;88.80;;;;;;4109694;28;19937;-41
2023/09/30 05:35:29;;;;;;;;;;;18.40;87.90;;;;;;4120792;28;19933;-41
2023/09/30 05:38:10;;;;;;;;;;;18.40;87.90;;;;;;4122100;28;19936;-43
2023/09/30 05:40:52;;;;;;;;;;;18.40;87.90;;;;;;4122160;28;20130;-41
2023/09/30 05:43:33;;;;;;;;;;;18.40;87.90;;;;;;4113928;28;20465;-41
2023/09/30 05:46:14;;;;;;;;;;;18.30;87.90;;;;;;4105252;28;20063;-45
2023/09/30 05:48:54;;;;;;;;;;;18.30;87.90;;;;;;4105667;28;20406;-44
2023/09/30 05:51:35;;;;;;;;;;;18.30;88.00;;;;;;4105893;28;20027;-41
2023/09/30 05:54:16;;;;;;;;;;;18.30;87.90;;;;;;4104289;28;19972;-41
2023/09/30 05:57:00;;;;;;;;;;;18.30;87.90;;;;;;4104860;28;19936;-41
2023/09/30 05:59:41;;;;;;;;;;;18.30;87.90;;;;;;4106288;28;20704;-41
2023/09/30 06:02:21;;;;;;;;;;;18.30;88.00;;;;;;4106626;28;19973;-41
2023/09/30 06:05:03;;;;;;;;;;;18.20;87.90;;;;;;4106068;28;20403;-41
2023/09/30 06:07:45;;;;;;;;;;;18.30;88.00;;;;;;4104955;28;20398;-41
2023/09/30 06:10:25;;;;;;;;;;;18.20;87.90;;;;;;4105367;28;20298;-41
2023/09/30 06:13:08;;;;;;;;;;;18.20;88.70;;;;;;4106161;28;19941;-41
2023/09/30 06:15:50;;;;;;;;;;;18.20;87.80;;;;;;4105802;28;19949;-41
2023/09/30 06:18:30;;;;;;;;;;;18.20;87.80;;;;;;4111804;28;20306;-41
2023/09/30 06:21:12;;;;;;;;;;;18.20;87.90;;;;;;4121885;28;20077;-40
2023/09/30 06:23:53;;;;;;;;;;;18.20;87.90;;;;;;4119748;28;20313;-40
2023/09/30 06:26:34;;;;;;;;;;;18.20;87.90;;;;;;4121544;28;20405;-40
2023/09/30 06:29:16;;;;;;;;;;;18.20;87.90;;;;;;4122030;28;19975;-41
2023/09/30 06:31:56;;;;;;;;;;;18.20;87.90;;;;;;4121276;28;20385;-41
2023/09/30 06:34:37;;;;;;;;;;;18.20;87.90;;;;;;4118330;28;19937;-40
2023/09/30 06:37:18;;;;;;;;;;;18.20;87.90;;;;;;4124512;28;19933;-41
2023/09/30 06:40:00;;;;;;;;;;;18.20;88.70;;;;;;4134828;28;20453;-41
2023/09/30 06:42:42;;;;;;;;;;;18.20;87.80;;;;;;4124955;28;19933;-40
2023/09/30 06:45:24;;;;;;;;;;;18.20;87.80;;;;;;4123929;28;20385;-41
2023/09/30 06:48:07;;;;;;;;;;;18.20;87.90;;;;;;4108332;28;19937;-41
2023/09/30 06:50:49;;;;;;;;;;;18.20;87.80;;;;;;4111917;28;20014;-41
2023/09/30 06:53:30;;;;;;;;;;;18.20;87.80;;;;;;4123617;28;20019;-41
2023/09/30 06:56:11;;;;;;;;;;;18.20;87.90;;;;;;4116424;28;19933;-40
2023/09/30 06:58:55;;;;;;;;;;;18.20;87.90;;;;;;4124154;28;19937;-40
2023/09/30 07:01:39;;;;;;;;;;;18.20;87.90;;;;;;4120856;28;19958;-40
2023/09/30 07:04:21;;;;;;;;;;;18.20;87.90;;;;;;4117522;28;19933;-40
2023/09/30 07:07:02;;;;;;;;;;;18.20;87.90;;;;;;4124100;28;20445;-40
2023/09/30 07:09:44;;;;;;;;;;;18.20;87.90;;;;;;4123274;28;20011;-40
2023/09/30 07:12:25;;;;;;;;;;;18.20;87.90;;;;;;4124271;28;19948;-41
2023/09/30 07:15:06;;;;;;;;;;;18.20;87.90;;;;;;4123988;28;19937;-40
2023/09/30 07:17:49;;;;;;;;;;;18.20;87.90;;;;;;4123055;28;20294;-41
2023/09/30 07:20:32;;;;;;;;;;;18.20;87.90;;;;;;4107474;28;20409;-41
2023/09/30 07:23:14;;;;;;;;;;;18.20;87.90;;;;;;4107916;28;19933;-41
2023/09/30 07:25:59;;;;;;;;;;;18.20;87.90;;;;;;4107663;28;20490;-41
2023/09/30 07:28:40;;;;;;;;;;;18.20;88.80;;;;;;4110960;28;19932;-41
2023/09/30 07:31:22;;;;;;;;;;;18.20;87.90;;;;;;4107822;28;19937;-41
2023/09/30 07:34:04;;;;;;;;;;;18.20;87.90;;;;;;4107950;28;19933;-41
2023/09/30 07:36:46;;;;;;;;;;;18.20;87.90;;;;;;4121127;28;19937;-42
2023/09/30 07:39:27;;;;;;;;;;;18.20;88.20;;;;;;4121615;28;19941;-42
2023/09/30 07:42:09;;;;;;;;;;;18.30;88.30;;;;;;4107907;28;20194;-41
2023/09/30 07:44:51;;;;;;;;;;;18.30;88.40;;;;;;4121100;28;19956;-40
2023/09/30 07:47:33;;;;;;;;;;;18.30;88.40;;;;;;4123159;28;20401;-40
2023/09/30 07:50:16;;;;;;;;;;;18.30;88.30;;;;;;4115130;28;20397;-40
2023/09/30 07:52:58;;;;;;;;;;;18.30;88.20;;;;;;4107923;28;20291;-40
2023/09/30 07:55:39;;;;;;;;;;;18.30;88.10;;;;;;4123664;28;20295;-41
2023/09/30 07:58:20;;;;;;;;;;;18.30;88.90;;;;;;4122383;28;19932;-40
2023/09/30 08:01:01;;;;;;;;;;;18.40;87.90;;;;;;4122983;28;20415;-41
2023/09/30 08:03:42;;;;;;;;;;;18.40;87.90;;;;;;4119505;28;19980;-40
2023/09/30 08:06:24;;;;;;;;;;;18.40;87.70;;;;;;4106961;28;19949;-40
2023/09/30 08:09:09;;;;;;;;;;;18.40;87.60;;;;;;4107380;28;20402;-40
2023/09/30 08:11:51;;;;;;;;;;;18.40;87.60;;;;;;4107574;28;20028;-42
2023/09/30 08:14:32;;;;;;;;;;;18.50;87.50;;;;;;4107732;28;19933;-40
2023/09/30 08:17:12;;;;;;;;;;;18.50;87.40;;;;;;4110107;28;19941;-41
2023/09/30 08:19:52;;;;;;;;;;;18.50;87.40;;;;;;4123177;28;19979;-40
2023/09/30 08:22:35;;;;;;;;;;;18.50;87.30;;;;;;4123225;28;20297;-40
2023/09/30 08:25:15;;;;;;;;;;;18.50;87.40;;;;;;4123326;28;19932;-40
2023/09/30 08:27:56;;;;;;;;;;;18.50;87.20;;;;;;4122365;28;19941;-40
2023/09/30 08:30:37;;;;;;;;;;;18.50;87.20;;;;;;4121349;28;19936;-41
2023/09/30 08:33:18;;;;;;;;;;;18.50;87.20;;;;;;4122280;28;20377;-39
2023/09/30 08:36:06;;;;;;;;;;;18.50;87.30;;;;;;4122324;28;20035;-39
2023/09/30 08:38:48;;;;;;;;;;;18.60;87.30;;;;;;4106510;28;19937;-41
2023/09/30 08:41:31;;;;;;;;;;;18.60;87.30;;;;;;4107249;28;20314;-41
2023/09/30 08:44:12;;;;;;;;;;;18.60;88.20;;;;;;4118533;28;19948;-41
2023/09/30 08:46:53;;;;;;;;;;;18.60;87.20;;;;;;4123140;28;20440;-41
2023/09/30 08:49:35;;;;;;;;;;;18.60;87.30;;;;;;4122977;28;19932;-41
2023/09/30 08:52:16;;;;;;;;;;;18.60;88.10;;;;;;4122631;28;20294;-41
2023/09/30 08:54:59;;;;;;;;;;;18.60;87.30;;;;;;4110589;28;20303;-41
2023/09/30 08:57:41;;;;;;;;;;;18.60;87.30;;;;;;4106961;28;19933;-41
2023/09/30 09:00:22;;;;;;;;;;;18.60;87.30;;;;;;4105906;28;20311;-41
2023/09/30 09:03:04;;;;;;;;;;;18.70;87.40;;;;;;4109713;28;19953;-42
2023/09/30 09:05:44;;;;;;;;;;;18.70;87.40;;;;;;4106621;28;20065;-41
2023/09/30 09:08:26;;;;;;;;;;;18.70;87.40;;;;;;4106365;28;19941;-40
2023/09/30 09:11:09;;;;;;;;;;;18.70;87.40;;;;;;4097942;28;20290;-41
2023/09/30 09:13:53;;;;;;;;;;;18.80;87.50;;;;;;4120236;28;19976;-41
2023/09/30 09:16:34;;;;;;;;;;;18.80;87.50;;;;;;4106976;28;20027;-41
2023/09/30 09:19:15;;;;;;;;;;;18.80;87.50;;;;;;4105844;28;20012;-40
2023/09/30 09:21:57;;;;;;;;;;;18.80;87.50;;;;;;4108545;28;19933;-41
2023/09/30 09:24:38;;;;;;;;;;;18.90;87.60;;;;;;4115770;28;19933;-41
2023/09/30 09:27:22;;;;;;;;;;;18.90;87.50;;;;;;4122463;28;20000;-41
2023/09/30 09:30:16;;;;;;;;;;;18.90;88.40;;;;;;4106722;28;20053;-41
2023/09/30 09:33:01;;;;;;;;;;;18.90;87.50;;;;;;4106622;28;19937;-41
2023/09/30 09:35:48;;;;;;;;;;;18.90;87.50;;;;;;4106586;28;20441;-41
2023/09/30 09:38:44;;;;;;;;;;;19.00;87.60;;;;;;4106482;28;19937;-41
2023/09/30 09:41:24;;;;;;;;;;;19.00;87.60;;;;;;4106028;28;20064;-40
2023/09/30 09:44:07;;;;;;;;;;;19.00;87.50;;;;;;4106262;28;19984;-40
2023/09/30 09:46:48;;;;;;;;;;;19.00;87.40;;;;;;4105862;28;19980;-39
2023/09/30 09:49:30;;;;;;;;;;;19.00;87.40;;;;;;4106484;28;19997;-40
2023/09/30 09:52:12;;;;;;;;;;;19.10;87.40;;;;;;4107032;28;19936;-40
2023/09/30 09:54:53;;;;;;;;;;;19.10;87.40;;;;;;4106557;28;20089;-40
2023/09/30 09:57:34;;;;;;;;;;;19.10;87.40;;;;;;4105774;28;19946;-40
2023/09/30 10:00:18;;;;;;;;;;;19.10;87.40;;;;;;4105394;28;19965;-40
2023/09/30 10:02:59;;;;;;;;;;;19.20;87.40;;;;;;4106195;28;19933;-40
2023/09/30 10:05:41;;;;;;;;;;;19.20;88.20;;;;;;4113745;28;20080;-40
2023/09/30 10:08:28;;;;;;;;;;;19.20;87.20;;;;;;4109470;28;19933;-40
2023/09/30 10:11:10;;;;;;;;;;;19.30;87.20;;;;;;4110311;28;19937;-40
2023/09/30 10:13:51;;;;;;;;;;;19.30;87.10;;;;;;4125256;28;19933;-40
2023/09/30 10:16:52;;;;;;;;;;;19.30;87.10;;;;;;4120788;28;20433;-40
2023/09/30 10:19:32;;;;;;;;;;;19.30;88.00;;;;;;4114748;28;19933;-42
2023/09/30 10:22:23;;;;;;;;;;;19.30;87.20;;;;;;4109543;28;19937;-40
2023/09/30 10:25:23;;;;;;;;;;;19.40;87.50;;;;;;4125297;28;20072;-41
2023/09/30 10:28:19;;;;;;;;;;;19.40;87.50;;;;;;4124753;28;19936;-40
2023/09/30 10:31:10;;;;;;;;;;;19.40;87.50;;;;;;4124267;28;20035;-40
2023/09/30 10:34:09;;;;;;;;;;;19.40;87.40;;;;;;4116585;28;19953;-40
2023/09/30 10:36:54;;;;;;;;;;;19.50;87.30;;;;;;4108409;28;20077;-42
2023/09/30 10:39:55;;;;;;;;;;;19.50;88.10;;;;;;4122555;28;19937;-40
2023/09/30 10:42:51;;;;;;;;;;;19.50;86.90;;;;;;4110459;28;20024;-40
2023/09/30 10:45:46;;;;;;;;;;;19.50;86.50;;;;;;4105384;28;19937;-42
2023/09/30 10:48:34;;;;;;;;;;;19.50;86.30;;;;;;4107391;28;20299;-41
2023/09/30 10:51:18;;;;;;;;;;;19.50;86.10;;;;;;4112952;28;19933;-41
2023/09/30 10:54:00;;;;;;;;;;;19.50;85.80;;;;;;4113022;28;19937;-43
2023/09/30 10:56:41;;;;;;;;;;;19.50;85.70;;;;;;4123784;28;20385;-40
2023/09/30 10:59:23;;;;;;;;;;;19.50;85.60;;;;;;4112786;28;19976;-40
2023/09/30 11:02:04;;;;;;;;;;;19.60;85.60;;;;;;4123847;28;20292;-40
2023/09/30 11:04:46;;;;;;;;;;;19.60;85.50;;;;;;4112276;28;19933;-40
2023/09/30 11:07:29;;;;;;;;;;;19.60;85.30;;;;;;4124235;28;20401;-40
2023/09/30 11:10:12;;;;;;;;;;;19.60;85.20;;;;;;4131115;28;19957;-40
2023/09/30 11:12:56;;;;;;;;;;;19.60;85.10;;;;;;4106822;28;19937;-44
2023/09/30 11:15:37;;;;;;;;;;;19.60;85.30;;;;;;4106126;28;20266;-41
2023/09/30 11:18:19;;;;;;;;;;;19.60;85.60;;;;;;4114738;28;19933;-42
2023/09/30 11:21:07;;;;;;;;;;;19.60;85.70;;;;;;4107535;28;20016;-44
2023/09/30 11:23:48;;;;;;;;;;;19.60;85.70;;;;;;4107284;28;19941;-48
2023/09/30 11:26:34;;;;;;;;;;;19.70;85.60;;;;;;4107622;28;19933;-44
2023/09/30 11:29:16;;;;;;;;;;;19.70;85.60;;;;;;4108424;28;20033;-49
2023/09/30 11:31:58;;;;;;;;;;;19.70;85.50;;;;;;4128712;28;19932;-49
2023/09/30 11:34:38;;;;;;;;;;;19.80;85.50;;;;;;4123555;28;19977;-49
2023/09/30 11:37:19;;;;;;;;;;;19.80;86.20;;;;;;4123072;28;19932;-44
2023/09/30 11:40:09;;;;;;;;;;;19.90;85.30;;;;;;4122392;28;19932;-44
2023/09/30 11:43:05;;;;;;;;;;;19.90;85.40;;;;;;4108144;28;20457;-44
2023/09/30 11:45:47;;;;;;;;;;;20.00;85.30;;;;;;4106404;28;20406;-46
2023/09/30 11:48:28;;;;;;;;;;;20.00;85.00;;;;;;4107414;28;19937;-45
2023/09/30 11:51:10;;;;;;;;;;;20.00;84.60;;;;;;4118863;28;19937;-46
2023/09/30 11:53:51;;;;;;;;;;;20.10;84.20;;;;;;4122022;28;19940;-47
2023/09/30 11:56:32;;;;;;;;;;;20.10;83.60;;;;;;4106545;28;19984;-46
2023/09/30 11:59:13;;;;;;;;;;;20.20;84.30;;;;;;4120652;28;19979;-46
2023/09/30 12:01:55;;;;;;;;;;;20.20;82.80;;;;;;4122511;28;20068;-46
2023/09/30 12:04:51;;;;;;;;;;;20.20;82.40;;;;;;4123140;28;19956;-48
2023/09/30 12:07:33;;;;;;;;;;;20.30;82.90;;;;;;4123426;28;20068;-45
2023/09/30 12:10:14;;;;;;;;;;;20.30;81.70;;;;;;4119966;28;19952;-49
2023/09/30 12:12:55;;;;;;;;;;;20.30;81.60;;;;;;4109845;28;19937;-44
2023/09/30 12:15:36;;;;;;;;;;;20.30;81.50;;;;;;4106859;28;19980;-45
2023/09/30 12:18:23;;;;;;;;;;;20.30;81.40;;;;;;4106885;28;20387;-45
2023/09/30 12:21:06;;;;;;;;;;;20.30;81.40;;;;;;4118281;28;19934;-45
2023/09/30 12:23:48;;;;;;;;;;;20.30;81.40;;;;;;4106539;28;19933;-45
2023/09/30 12:26:29;;;;;;;;;;;20.20;81.40;;;;;;4118335;28;19980;-40
2023/09/30 12:29:10;;;;;;;;;;;20.20;81.70;;;;;;4121391;28;19932;-40
2023/09/30 12:31:52;;;;;;;;;;;20.20;82.10;;;;;;4107710;28;19937;-41
2023/09/30 12:34:35;;;;;;;;;;;20.20;82.50;;;;;;4106193;28;20044;-41
2023/09/30 12:37:17;;;;;;;;;;;20.20;82.80;;;;;;4106203;28;19995;-41
2023/09/30 12:39:58;;;;;;;;;;;20.20;83.00;;;;;;4106157;28;19969;-41
2023/09/30 12:42:39;;;;;;;;;;;20.20;83.40;;;;;;4107080;28;19934;-41
2023/09/30 12:45:19;;;;;;;;;;;20.10;83.60;;;;;;4118592;28;19936;-43
2023/09/30 12:48:00;;;;;;;;;;;20.10;83.90;;;;;;4123576;28;19933;-42
2023/09/30 12:50:42;;;;;;;;;;;20.10;84.20;;;;;;4122629;28;19937;-46
2023/09/30 12:53:23;;;;;;;;;;;20.10;85.10;;;;;;4122948;28;20346;-44
2023/09/30 12:56:04;;;;;;;;;;;20.00;84.30;;;;;;4122336;28;19937;-43
2023/09/30 12:58:45;;;;;;;;;;;20.00;84.00;;;;;;4122518;28;19984;-42
2023/09/30 13:01:26;;;;;;;;;;;20.00;83.70;;;;;;4122853;28;19933;-44
2023/09/30 13:04:08;;;;;;;;;;;20.00;83.70;;;;;;4122334;28;19995;-45
2023/09/30 13:06:51;;;;;;;;;;;20.00;83.70;;;;;;4121555;28;19933;-43
2023/09/30 13:09:32;;;;;;;;;;;20.00;83.60;;;;;;4106410;28;19964;-42
2023/09/30 13:12:13;;;;;;;;;;;20.00;83.50;;;;;;4105962;28;19954;-44
2023/09/30 13:14:55;;;;;;;;;;;20.00;83.50;;;;;;4106107;28;20024;-44
2023/09/30 13:17:36;;;;;;;;;;;20.00;83.50;;;;;;4104894;28;20474;-44
2023/09/30 13:20:17;;;;;;;;;;;20.00;83.30;;;;;;4107307;28;19941;-42
2023/09/30 13:23:00;;;;;;;;;;;20.00;83.30;;;;;;4105538;28;19933;-43
2023/09/30 13:25:41;;;;;;;;;;;20.00;83.00;;;;;;4104952;28;20394;-43
2023/09/30 13:28:22;;;;;;;;;;;20.00;82.80;;;;;;4104812;28;20451;-41
2023/09/30 13:31:03;;;;;;;;;;;20.00;82.50;;;;;;4105567;28;20085;-43
2023/09/30 13:33:44;;;;;;;;;;;20.00;83.10;;;;;;4103533;28;20030;-44
2023/09/30 13:36:25;;;;;;;;;;;20.00;81.90;;;;;;4105157;28;20036;-44
2023/09/30 13:39:07;;;;;;;;;;;20.10;81.80;;;;;;4106104;28;19948;-43
2023/09/30 13:41:48;;;;;;;;;;;20.10;81.60;;;;;;4105610;28;19984;-46
2023/09/30 13:44:29;;;;;;;;;;;20.10;81.30;;;;;;4105170;28;19933;-43
2023/09/30 13:47:09;;;;;;;;;;;20.10;81.10;;;;;;4105385;28;19937;-42
2023/09/30 13:49:50;;;;;;;;;;;20.10;80.90;;;;;;4106275;28;19933;-44
2023/09/30 13:52:31;;;;;;;;;;;20.10;80.80;;;;;;4116754;28;19936;-47
2023/09/30 13:55:18;;;;;;;;;;;20.10;80.70;;;;;;4121125;28;20399;-43
2023/09/30 13:57:59;;;;;;;;;;;20.10;80.70;;;;;;4116880;28;20403;-46
2023/09/30 14:00:41;;;;;;;;;;;20.10;80.50;;;;;;4105873;28;19937;-41
2023/09/30 14:03:24;;;;;;;;;;;20.10;80.20;;;;;;4105066;28;20049;-47
2023/09/30 14:06:10;;;;;;;;;;;20.20;80.00;;;;;;4112990;28;20295;-45
2023/09/30 14:08:52;;;;;;;;;;;20.20;80.30;;;;;;4121174;28;20064;-48
2023/09/30 14:11:35;;;;;;;;;;;20.20;80.70;;;;;;4119351;28;19976;-50
2023/09/30 14:14:16;;;;;;;;;;;20.20;80.60;;;;;;4119801;28;20494;-48
2023/09/30 14:16:57;;;;;;;;;;;20.20;81.60;;;;;;4116526;28;20079;-43
2023/09/30 14:19:38;;;;;;;;;;;20.20;80.60;;;;;;4105252;28;19933;-49
2023/09/30 14:22:19;;;;;;;;;;;20.30;80.60;;;;;;4110421;28;19937;-42
2023/09/30 14:24:59;;;;;;;;;;;20.30;80.40;;;;;;4116758;28;19932;-46
2023/09/30 14:27:41;;;;;;;;;;;20.40;80.30;;;;;;4120614;28;20295;-46
2023/09/30 14:30:22;;;;;;;;;;;20.40;80.20;;;;;;4121719;28;20302;-44
2023/09/30 14:33:04;;;;;;;;;;;20.40;80.90;;;;;;4119860;28;20071;-42
2023/09/30 14:35:46;;;;;;;;;;;20.40;80.90;;;;;;4113651;28;19937;-47
2023/09/30 14:38:26;;;;;;;;;;;20.40;79.90;;;;;;4121754;28;19984;-50
2023/09/30 14:41:08;;;;;;;;;;;20.50;79.80;;;;;;4108868;28;20008;-44
2023/09/30 14:43:50;;;;;;;;;;;20.50;79.70;;;;;;4120239;28;19933;-46
2023/09/30 14:46:30;;;;;;;;;;;20.60;79.70;;;;;;4110108;28;19933;-44
2023/09/30 14:49:11;;;;;;;;;;;20.60;79.40;;;;;;4106071;28;19936;-44
2023/09/30 14:51:52;;;;;;;;;;;20.50;80.00;;;;;;4105446;28;19937;-46
2023/09/30 14:54:32;;;;;;;;;;;20.60;78.80;;;;;;4104221;28;19933;-44
2023/09/30 14:57:13;;;;;;;;;;;20.60;78.50;;;;;;4105409;28;20408;-43
2023/09/30 14:59:57;;;;;;;;;;;20.60;78.70;;;;;;4107380;28;19933;-44
2023/09/30 15:02:40;;;;;;;;;;;20.50;78.40;;;;;;4114089;28;19940;-44
2023/09/30 15:05:21;;;;;;;;;;;20.50;78.30;;;;;;4107812;28;19948;-46
2023/09/30 15:08:02;;;;;;;;;;;20.50;79.40;;;;;;4111469;28;20072;-45
2023/09/30 15:10:43;;;;;;;;;;;20.40;78.50;;;;;;4123401;28;19961;-45
2023/09/30 15:13:24;;;;;;;;;;;20.50;78.70;;;;;;4123125;28;20389;-46
2023/09/30 15:16:06;;;;;;;;;;;20.40;78.80;;;;;;4123913;28;20013;-43
2023/09/30 15:18:50;;;;;;;;;;;20.40;79.00;;;;;;4124003;28;19932;-44
2023/09/30 15:21:30;;;;;;;;;;;20.40;79.30;;;;;;4122959;28;20069;-43
2023/09/30 15:24:11;;;;;;;;;;;20.40;79.50;;;;;;4124358;28;19937;-43
2023/09/30 15:26:52;;;;;;;;;;;20.40;79.60;;;;;;4124100;28;19936;-43
2023/09/30 15:29:33;;;;;;;;;;;20.30;79.70;;;;;;4123777;28;19976;-45
2023/09/30 15:32:16;;;;;;;;;;;20.30;79.70;;;;;;4123950;28;19968;-46
2023/09/30 15:34:57;;;;;;;;;;;20.30;79.80;;;;;;4123508;28;19961;-43
2023/09/30 15:37:38;;;;;;;;;;;20.30;79.90;;;;;;4122754;28;19933;-43
2023/09/30 15:40:19;;;;;;;;;;;20.30;79.90;;;;;;4122079;28;20286;-42
2023/09/30 15:43:00;;;;;;;;;;;20.30;80.00;;;;;;4122760;28;19932;-45